Time;durP1;ratioP1;P1;durP2;ratioP2;P2;SDS_P1;SDS_P2;PMS_P1;PMS_P2;Temp;Humidity;BMP_temperature;BMP_pressure;BME280_temperature;BME280_humidity;BME280_pressure;Samples;Min_cycle;Max_cycle;Signal;HPM_P1;HPM_P2
2022/04/24 00:01:15;;;;;;;10.50;7.15;;;;;;;7.87;100.00;92699.00;5050455;28;20041;-84
2022/04/24 00:03:43;;;;;;;11.57;6.22;;;;;;;7.77;100.00;92690.97;5050309;28;20051;-84
2022/04/24 00:06:10;;;;;;;14.38;7.82;;;;;;;7.73;100.00;92695.72;5050581;28;20144;-84
2022/04/24 00:08:37;;;;;;;9.60;6.15;;;;;;;7.70;100.00;92691.00;5050628;28;20044;-84
2022/04/24 00:11:04;;;;;;;11.38;6.55;;;;;;;7.65;100.00;92694.19;5050211;28;20053;-84
2022/04/24 00:13:37;;;;;;;11.65;5.97;;;;;;;7.39;100.00;92659.28;5050433;28;20098;-84
2022/04/24 00:16:05;;;;;;;10.93;6.05;;;;;;;7.57;100.00;92686.72;5050183;28;20041;-84
2022/04/24 00:18:31;;;;;;;7.85;4.70;;;;;;;7.48;100.00;92676.75;5050501;28;20370;-84
2022/04/24 00:21:00;;;;;;;11.30;4.50;;;;;;;7.63;100.00;92703.81;5049979;28;20059;-84
2022/04/24 00:23:27;;;;;;;9.38;3.90;;;;;;;7.60;100.00;92704.22;5050188;28;20092;-84
2022/04/24 00:25:53;;;;;;;6.68;3.05;;;;;;;7.40;100.00;92688.97;5050244;28;20400;-84
2022/04/24 00:28:20;;;;;;;8.02;4.13;;;;;;;7.11;100.00;92658.63;5049876;28;20045;-84
2022/04/24 00:30:47;;;;;;;6.63;3.75;;;;;;;7.31;100.00;92701.19;5050187;28;20048;-84
2022/04/24 00:33:14;;;;;;;7.28;4.03;;;;;;;7.27;100.00;92700.03;5049966;28;20095;-84
2022/04/24 00:35:41;;;;;;;7.53;3.85;;;;;;;7.17;100.00;92683.34;5050098;28;20036;-84
2022/04/24 00:38:09;;;;;;;8.60;4.50;;;;;;;7.15;100.00;92674.31;5049567;28;20051;-84
2022/04/24 00:40:36;;;;;;;6.95;4.25;;;;;;;7.31;100.00;92698.66;5049918;28;20377;-84
2022/04/24 00:43:03;;;;;;;10.70;5.63;;;;;;;7.04;100.00;92668.06;5049680;28;20524;-84
2022/04/24 00:45:30;;;;;;;7.32;4.78;;;;;;;7.27;100.00;92700.03;5037873;28;20040;-84
2022/04/24 00:47:57;;;;;;;9.18;4.85;;;;;;;7.05;100.00;92674.75;5049917;28;20041;-84
2022/04/24 00:50:24;;;;;;;7.38;4.10;;;;;;;7.27;100.00;92702.59;5049527;28;20076;-84
2022/04/24 00:52:51;;;;;;;7.50;4.65;;;;;;;7.24;100.00;92705.53;5050092;28;20040;-84
2022/04/24 00:55:23;;;;;;;10.30;4.20;;;;;;;7.11;100.00;92693.56;5049682;28;20041;-85
2022/04/24 00:57:51;;;;;;;9.45;4.60;;;;;;;7.04;100.00;92699.47;5049366;28;20550;-84
2022/04/24 01:00:18;;;;;;;6.20;4.07;;;;;;;7.03;100.00;92697.16;5049551;28;20049;-83
2022/04/24 01:02:45;;;;;;;8.65;4.57;;;;;;;7.03;100.00;92709.91;5049739;28;20255;-83
2022/04/24 01:05:12;;;;;;;7.38;4.10;;;;;;;6.99;100.00;92709.50;5049436;28;20053;-83
2022/04/24 01:07:39;;;;;;;7.72;4.00;;;;;;;6.97;100.00;92711.50;5049230;28;20045;-84
2022/04/24 01:10:07;;;;;;;8.52;4.63;;;;;;;6.95;100.00;92714.25;5049463;28;20048;-84
2022/04/24 01:12:35;;;;;;;5.88;3.67;;;;;;;6.96;100.00;92715.03;5049303;28;20499;-84
2022/04/24 01:15:02;;;;;;;8.15;4.38;;;;;;;6.94;100.00;92720.34;5049197;28;20503;-85
2022/04/24 01:17:29;;;;;;;8.07;5.03;;;;;;;6.67;100.00;92689.72;5049285;28;20041;-85
2022/04/24 01:19:56;;;;;;;8.40;3.97;;;;;;;6.90;100.00;92723.50;5049319;28;20098;-84
2022/04/24 01:22:25;;;;;;;7.45;4.57;;;;;;;6.71;100.00;92710.53;5049409;28;20048;-85
2022/04/24 01:24:52;;;;;;;9.48;4.97;;;;;;;6.86;100.00;92735.06;5048721;28;20049;-84
2022/04/24 01:27:18;;;;;;;6.97;4.32;;;;;;;6.74;100.00;92732.31;5049375;28;20044;-84
2022/04/24 01:29:45;;;;;;;9.10;4.53;;;;;;;6.76;100.00;92728.59;5049004;28;20527;-84
2022/04/24 01:32:12;;;;;;;8.00;4.18;;;;;;;6.80;100.00;92727.22;5049282;28;20045;-84
2022/04/24 01:34:39;;;;;;;6.38;4.00;;;;;;;6.83;100.00;92731.16;5049487;28;20041;-84
2022/04/24 01:37:06;;;;;;;7.25;4.28;;;;;;;6.84;100.00;92734.50;5048863;28;20041;-84
2022/04/24 01:39:34;;;;;;;6.82;4.43;;;;;;;6.85;100.00;92734.28;5049261;28;20049;-84
2022/04/24 01:42:01;;;;;;;8.13;4.47;;;;;;;6.84;100.00;92740.38;5049224;28;20045;-84
2022/04/24 01:44:27;;;;;;;5.95;3.67;;;;;;;6.62;100.00;92709.94;5049111;28;20071;-84
2022/04/24 01:46:54;;;;;;;5.75;3.75;;;;;;;6.78;100.00;92739.41;5049469;28;20053;-84
2022/04/24 01:49:21;;;;;;;6.70;3.83;;;;;;;6.59;100.00;92725.69;5049180;28;20071;-84
2022/04/24 01:51:49;;;;;;;7.55;4.20;;;;;;;6.51;100.00;92713.91;5049079;28;20041;-84
2022/04/24 01:54:16;;;;;;;9.38;4.35;;;;;;;6.59;100.00;92735.88;5048874;28;20041;-84
2022/04/24 01:56:44;;;;;;;8.23;3.95;;;;;;;6.59;100.00;92732.53;5048949;28;20045;-85
2022/04/24 01:59:12;;;;;;;11.18;5.25;;;;;;;6.44;100.00;92709.78;5049041;28;20041;-85
2022/04/24 02:01:38;;;;;;;11.23;4.80;;;;;;;6.60;100.00;92724.69;5048799;28;20056;-85
2022/04/24 02:04:05;;;;;;;7.88;4.57;;;;;;;6.62;100.00;92727.81;5048676;28;20065;-85
2022/04/24 02:06:32;;;;;;;9.40;4.72;;;;;;;6.58;100.00;92726.66;5048976;28;20049;-85
2022/04/24 02:08:59;;;;;;;7.82;3.92;;;;;;;6.57;100.00;92737.81;5049092;28;20052;-85
2022/04/24 02:11:26;;;;;;;6.13;3.67;;;;;;;6.53;100.00;92739.22;5048781;28;20048;-85
2022/04/24 02:13:54;;;;;;;6.53;3.30;;;;;;;6.52;100.00;92732.53;5048672;28;20077;-85
2022/04/24 02:16:21;;;;;;;8.82;3.40;;;;;;;6.26;100.00;92701.72;5048636;28;20378;-85
2022/04/24 02:18:48;;;;;;;6.45;2.83;;;;;;;6.42;100.00;92740.56;5048757;28;20041;-85
2022/04/24 02:21:15;;;;;;;6.05;2.83;;;;;;;6.35;100.00;92745.66;5048827;28;20064;-85
2022/04/24 02:23:42;;;;;;;6.18;2.97;;;;;;;6.24;100.00;92730.94;5048860;28;20044;-84
2022/04/24 02:26:08;;;;;;;6.63;3.35;;;;;;;6.14;100.00;92736.41;5048464;28;20488;-85
2022/04/24 02:28:36;;;;;;;6.35;3.13;;;;;;;5.97;100.00;92720.69;5048971;28;20052;-85
2022/04/24 02:31:04;;;;;;;6.22;2.97;;;;;;;5.95;100.00;92715.78;5048514;28;20049;-84
2022/04/24 02:33:31;;;;;;;6.13;3.30;;;;;;;6.08;100.00;92738.00;5048489;28;20045;-84
2022/04/24 02:35:58;;;;;;;8.55;4.13;;;;;;;6.10;100.00;92732.69;5048481;28;20052;-84
2022/04/24 02:38:25;;;;;;;5.72;3.67;;;;;;;6.13;100.00;92735.66;5051773;28;20049;-85
2022/04/24 02:40:51;;;;;;;7.88;3.50;;;;;;;6.04;100.00;92711.31;5051996;28;20049;-84
2022/04/24 02:43:18;;;;;;;6.93;3.90;;;;;;;5.96;100.00;92707.16;5052381;28;20049;-85
2022/04/24 02:45:46;;;;;;;8.73;4.18;;;;;;;5.95;100.00;92709.88;5051697;28;20048;-84
2022/04/24 02:48:15;;;;;;;5.50;3.20;;;;;;;6.08;100.00;92743.09;5051877;28;20049;-84
2022/04/24 02:50:41;;;;;;;6.47;3.40;;;;;;;5.98;100.00;92733.22;5052165;28;20052;-84
2022/04/24 02:53:09;;;;;;;6.72;2.72;;;;;;;5.80;100.00;92705.75;5051579;28;20040;-85
2022/04/24 02:55:36;;;;;;;6.53;3.15;;;;;;;6.04;100.00;92751.31;5052048;28;20435;-84
2022/04/24 02:58:03;;;;;;;5.47;3.00;;;;;;;5.96;100.00;92750.47;5051576;28;20049;-84
2022/04/24 03:00:39;;;;;;;5.70;2.72;;;;;;;5.92;100.00;92754.38;5051528;28;20044;-84
2022/04/24 03:03:06;;;;;;;;;;;;;;;5.80;100.00;92749.06;5052330;28;20094;-84
2022/04/24 03:05:35;;;;;;;6.82;2.60;;;;;;;5.79;100.00;92756.91;5051660;28;19925;-83
2022/04/24 03:08:02;;;;;;;5.30;2.65;;;;;;;5.78;100.00;92756.09;5051413;28;20488;-84
2022/04/24 03:10:30;;;;;;;4.78;3.08;;;;;;;5.79;100.00;92759.47;5051287;28;20041;-84
2022/04/24 03:12:57;;;;;;;10.75;4.75;;;;;;;5.37;100.00;92691.47;5051490;28;20036;-84
2022/04/24 03:15:24;;;;;;;10.63;5.40;;;;;;;5.74;100.00;92762.59;5051369;28;20447;-84
2022/04/24 03:17:54;;;;;;;9.10;5.47;;;;;;;5.65;100.00;92761.16;5051561;28;20124;-84
2022/04/24 03:20:22;;;;;;;6.25;4.22;;;;;;;5.73;100.00;92764.34;5051520;28;20066;-84
2022/04/24 03:22:50;;;;;;;12.45;5.18;;;;;;;5.69;100.00;92758.03;5051077;28;20037;-84
2022/04/24 03:25:17;;;;;;;9.40;5.10;;;;;;;5.82;100.00;92762.41;5051302;28;20044;-84
2022/04/24 03:27:44;;;;;;;7.80;4.57;;;;;;;5.92;100.00;92774.00;5051457;28;20055;-84
2022/04/24 03:30:11;;;;;;;14.27;9.85;;;;;;;5.75;100.00;92748.88;5051099;28;20052;-84
2022/04/24 03:32:38;;;;;;;11.45;7.35;;;;;;;5.99;100.00;92777.34;5051304;28;20095;-85
2022/04/24 03:35:08;;;;;;;11.10;7.05;;;;;;;6.01;100.00;92783.03;5051254;28;20052;-84
2022/04/24 03:37:35;;;;;;;8.23;5.43;;;;;;;6.05;100.00;92778.38;5050933;28;20044;-84
2022/04/24 03:40:04;;;;;;;9.57;6.35;;;;;;;5.84;100.00;92742.59;5051128;28;20071;-85
2022/04/24 03:42:31;;;;;;;10.02;6.55;;;;;;;6.10;100.00;92776.03;5050884;28;20045;-84
2022/04/24 03:44:58;;;;;;;10.43;6.35;;;;;;;5.92;100.00;92751.84;5050814;28;20036;-84
2022/04/24 03:47:25;;;;;;;11.48;6.68;;;;;;;6.04;100.00;92774.25;5050435;28;20830;-84
2022/04/24 03:49:53;;;;;;;12.88;7.00;;;;;;;5.81;100.00;92745.53;5050692;28;20037;-85
2022/04/24 03:52:20;;;;;;;11.55;7.25;;;;;;;6.06;100.00;92778.19;5050714;28;20047;-84
2022/04/24 03:54:47;;;;;;;11.88;6.72;;;;;;;6.01;100.00;92778.75;5050676;28;21104;-85
2022/04/24 03:57:15;;;;;;;12.95;6.72;;;;;;;6.07;100.00;92779.75;5050746;28;20052;-84
2022/04/24 03:59:42;;;;;;;10.95;6.38;;;;;;;6.04;100.00;92780.16;5050524;28;20052;-85
2022/04/24 04:02:09;;;;;;;13.38;6.28;;;;;;;5.85;100.00;92751.03;5050179;28;20400;-85
2022/04/24 04:04:36;;;;;;;13.98;6.78;;;;;;;5.96;100.00;92775.19;5050483;28;20041;-84
2022/04/24 04:07:03;;;;;;;9.68;6.28;;;;;;;5.85;100.00;92762.03;5050395;28;20045;-84
2022/04/24 04:09:30;;;;;;;12.70;5.72;;;;;;;5.99;100.00;92785.00;5050760;28;20496;-84
2022/04/24 04:11:57;;;;;;;15.25;6.47;;;;;;;6.01;100.00;92786.38;5050600;28;20045;-84
2022/04/24 04:14:28;;;;;;;10.40;4.68;;;;;;;5.81;100.00;92752.41;5050533;28;20037;-84
2022/04/24 04:16:55;;;;;;;9.15;3.65;;;;;;;6.03;100.00;92780.34;5050165;28;20407;-84
2022/04/24 04:19:22;;;;;;;16.80;5.45;;;;;;;6.01;100.00;92775.38;5049515;28;20036;-82
2022/04/24 04:21:49;;;;;;;15.98;5.15;;;;;;;6.04;100.00;92776.81;5047099;28;20049;-82
2022/04/24 04:24:16;;;;;;;12.80;5.00;;;;;;;6.15;100.00;92778.78;5049983;28;20052;-81
2022/04/24 04:26:44;;;;;;;11.65;4.57;;;;;;;6.10;100.00;92771.72;5046740;28;20539;-81
2022/04/24 04:29:11;;;;;;;16.08;9.32;;;;;;;6.14;100.00;92780.56;5049401;28;20041;-82
2022/04/24 04:31:39;;;;;;;22.35;12.75;;;;;;;6.04;100.00;92790.34;5049816;28;20048;-81
2022/04/24 04:34:06;;;;;;;14.38;8.60;;;;;;;5.87;100.00;92772.81;5049948;28;20045;-82
2022/04/24 04:36:33;;;;;;;12.68;7.60;;;;;;;5.94;100.00;92777.16;5049722;28;20045;-81
2022/04/24 04:39:00;;;;;;;13.35;8.50;;;;;;;6.12;100.00;92794.50;5050139;28;20045;-81
2022/04/24 04:41:26;;;;;;;22.17;9.48;;;;;;;6.08;100.00;92760.16;5049563;28;20044;-82
2022/04/24 04:43:53;;;;;;;13.63;8.98;;;;;;;6.30;100.00;92775.31;5049600;28;20044;-82
2022/04/24 04:46:20;;;;;;;15.25;9.95;;;;;;;6.60;100.00;92795.34;5049300;28;20090;-83
2022/04/24 04:48:48;;;;;;;18.20;10.10;;;;;;;6.77;100.00;92799.09;5049956;28;20041;-83
2022/04/24 04:51:15;;;;;;;16.73;8.95;;;;;;;7.01;100.00;92794.38;5050024;28;20049;-82
2022/04/24 04:53:42;;;;;;;17.17;9.10;;;;;;;7.16;100.00;92803.59;5049786;28;20408;-83
2022/04/24 04:56:09;;;;;;;15.13;9.82;;;;;;;7.29;100.00;92792.56;5048523;28;20045;-82
2022/04/24 04:58:36;;;;;;;23.95;16.25;;;;;;;7.29;100.00;92778.03;5048203;28;20044;-82
2022/04/24 05:01:03;;;;;;;13.57;9.15;;;;;;;7.52;100.00;92796.44;5047309;28;20041;-82
2022/04/24 05:03:31;;;;;;;12.63;6.15;;;;;;;7.54;100.00;92808.03;5049102;28;20047;-82
2022/04/24 05:06:02;;;;;;;13.00;7.30;;;;;;;7.59;100.00;92808.22;5049519;28;20053;-82
2022/04/24 05:08:29;;;;;;;10.57;6.35;;;;;;;7.46;100.00;92783.50;5049704;28;20045;-82
2022/04/24 05:10:56;;;;;;;10.65;6.82;;;;;;;7.67;100.00;92812.34;5049777;28;20040;-83
2022/04/24 05:13:24;;;;;;;11.15;6.72;;;;;;;7.62;100.00;92795.06;5048960;28;20037;-84
2022/04/24 05:15:51;;;;;;;9.80;5.85;;;;;;;7.88;100.00;92803.59;5047897;28;20040;-84
2022/04/24 05:18:19;;;;;;;11.68;6.65;;;;;;;8.06;100.00;92804.72;5048964;28;20037;-83
2022/04/24 05:20:46;;;;;;;14.10;7.07;;;;;;;8.30;100.00;92810.13;5045423;28;20067;-84
2022/04/24 05:23:14;;;;;;;10.95;6.93;;;;;;;8.53;100.00;92801.16;5046201;28;20036;-83
2022/04/24 05:25:41;;;;;;;14.35;7.05;;;;;;;8.66;100.00;92795.94;5048589;28;20045;-83
2022/04/24 05:28:08;;;;;;;9.82;6.45;;;;;;;9.00;100.00;92800.84;5048721;28;20037;-83
2022/04/24 05:30:34;;;;;;;21.75;13.88;;;;;;;9.29;100.00;92802.94;5049195;28;20068;-84
2022/04/24 05:33:05;;;;;;;17.17;8.57;;;;;;;9.66;100.00;92810.66;5048298;28;20044;-84
2022/04/24 05:35:32;;;;;;;12.80;6.97;;;;;;;10.02;100.00;92800.59;5048645;28;20088;-84
2022/04/24 05:38:01;;;;;;;13.15;8.32;;;;;;;10.21;100.00;92783.41;5048395;28;20052;-85
2022/04/24 05:40:29;;;;;;;13.45;6.97;;;;;;;10.43;100.00;92806.06;5048149;28;20036;-84
2022/04/24 05:42:56;;;;;;;10.32;5.57;;;;;;;10.58;100.00;92810.00;5048471;28;20373;-84
2022/04/24 05:45:24;;;;;;;12.40;7.75;;;;;;;10.14;100.00;92710.84;5048328;28;20037;-84
2022/04/24 05:47:54;;;;;;;12.68;7.95;;;;;;;10.79;100.00;92778.66;5047386;28;20045;-84
2022/04/24 05:50:24;;;;;;;12.25;7.50;;;;;;;11.16;100.00;92807.75;5048248;28;20120;-84
2022/04/24 05:52:53;;;;;;;12.02;7.00;;;;;;;11.13;100.00;92803.03;5048777;28;20180;-84
2022/04/24 05:55:20;;;;;;;10.07;6.00;;;;;;;11.52;100.00;92812.91;5048662;28;20495;-84
2022/04/24 05:57:49;;;;;;;10.20;5.63;;;;;;;11.72;97.11;92782.44;5048507;28;20041;-84
2022/04/24 06:00:17;;;;;;;10.85;6.25;;;;;;;12.28;94.68;92809.53;5048785;28;20140;-84
2022/04/24 06:02:44;;;;;;;9.02;4.65;;;;;;;12.70;93.78;92804.03;5049036;28;20049;-84
2022/04/24 06:05:11;;;;;;;12.73;5.00;;;;;;;13.13;89.34;92811.44;5048635;28;20057;-84
2022/04/24 06:07:38;;;;;;;10.98;5.40;;;;;;;13.41;87.68;92796.06;5048674;28;20091;-85
2022/04/24 06:10:06;;;;;;;13.60;5.30;;;;;;;13.59;84.34;92782.16;5048946;28;20049;-84
2022/04/24 06:12:43;;;;;;;8.30;4.65;;;;;;;13.58;82.14;92745.25;5048982;28;20045;-84
2022/04/24 06:15:15;;;;;;;9.75;4.78;;;;;;;14.33;83.02;92797.44;5050738;28;20045;-83
2022/04/24 06:17:43;;;;;;;12.80;6.25;;;;;;;14.25;81.55;92806.41;5052304;28;20055;-84
2022/04/24 06:20:11;;;;;;;10.20;4.60;;;;;;;14.53;81.36;92789.91;5052465;28;20049;-84
2022/04/24 06:22:48;;;;;;;9.32;4.15;;;;;;;14.18;83.31;92785.94;5052261;28;20053;-84
2022/04/24 06:25:19;;;;;;;14.93;4.65;;;;;;;13.74;87.04;92791.88;5051963;28;20056;-83
2022/04/24 06:27:47;;;;;;;9.80;4.20;;;;;;;13.97;84.87;92746.19;5051897;28;20052;-83
2022/04/24 06:30:17;;;;;;;9.88;3.92;;;;;;;14.33;85.79;92775.00;5052123;28;20495;-83
2022/04/24 06:32:45;;;;;;;14.13;3.58;;;;;;;14.67;83.69;92764.44;5052192;28;20037;-83
2022/04/24 06:35:14;;;;;;;26.70;4.20;;;;;;;15.05;79.30;92771.50;5052127;28;20068;-83
2022/04/24 06:37:42;;;;;;;10.90;3.60;;;;;;;14.62;78.69;92772.16;5052123;28;20072;-83
2022/04/24 06:40:13;;;;;;;9.43;2.95;;;;;;;14.34;81.01;92762.88;5051821;28;20048;-84
2022/04/24 06:42:48;;;;;;;7.18;2.90;;;;;;;14.73;79.55;92741.22;5052122;28;20049;-84
2022/04/24 06:45:17;;;;;;;12.38;2.83;;;;;;;15.08;77.64;92761.41;5052061;28;20077;-84
2022/04/24 06:47:45;;;;;;;8.23;2.65;;;;;;;14.94;76.13;92776.59;5051781;28;20056;-86
2022/04/24 06:50:12;;;;;;;11.43;3.03;;;;;;;15.36;76.26;92769.09;5051685;28;20053;-84
2022/04/24 06:52:39;;;;;;;12.82;2.70;;;;;;;15.14;75.84;92707.13;5051923;28;20045;-84
2022/04/24 06:55:07;;;;;;;9.40;2.72;;;;;;;15.90;74.42;92751.75;5051177;28;20056;-84
2022/04/24 06:57:34;;;;;;;7.68;2.95;;;;;;;16.38;74.55;92766.44;5051861;28;20049;-85
2022/04/24 07:00:01;;;;;;;10.05;3.22;;;;;;;16.91;73.89;92762.84;5051574;28;20500;-85
2022/04/24 07:02:29;;;;;;;10.85;3.03;;;;;;;16.91;70.63;92722.13;5051537;28;20076;-85
2022/04/24 07:04:56;;;;;;;9.10;2.97;;;;;;;17.18;67.91;92770.34;5051540;28;20060;-85
2022/04/24 07:07:23;;;;;;;12.05;3.50;;;;;;;17.48;69.60;92748.00;5051864;28;20458;-86
2022/04/24 07:09:51;;;;;;;7.47;3.22;;;;;;;18.16;70.36;92766.72;5051103;28;20484;-85
2022/04/24 07:12:18;;;;;;;16.92;3.50;;;;;;;18.33;66.43;92764.84;5052088;28;20040;-85
2022/04/24 07:14:44;;;;;;;13.43;2.60;;;;;;;18.70;62.41;92766.94;5052248;28;20041;-86
2022/04/24 07:17:11;;;;;;;6.53;2.10;;;;;;;18.35;64.45;92758.31;5051659;28;20503;-86
2022/04/24 07:19:39;;;;;;;10.95;2.67;;;;;;;17.90;65.09;92722.66;5051384;28;20045;-83
2022/04/24 07:22:06;;;;;;;9.98;2.42;;;;;;;18.52;62.31;92746.78;5050314;28;20422;-83
2022/04/24 07:24:33;;;;;;;10.40;2.90;;;;;;;18.96;61.27;92742.53;5050885;28;20049;-83
2022/04/24 07:27:00;;;;;;;6.63;2.08;;;;;;;18.74;61.17;92738.56;5051067;28;20065;-84
2022/04/24 07:29:27;;;;;;;9.98;2.47;;;;;;;19.01;60.67;92734.69;5048765;28;20129;-83
2022/04/24 07:31:54;;;;;;;11.82;2.20;;;;;;;19.46;63.27;92711.13;5049254;28;20404;-82
2022/04/24 07:34:21;;;;;;;4.95;1.88;;;;;;;20.01;60.25;92736.03;5049972;28;20045;-83
2022/04/24 07:36:49;;;;;;;11.18;2.67;;;;;;;20.28;54.01;92744.34;5051135;28;20131;-83
2022/04/24 07:39:16;;;;;;;6.45;1.77;;;;;;;19.96;53.56;92728.31;5051097;28;20041;-84
2022/04/24 07:41:43;;;;;;;7.15;1.80;;;;;;;19.96;53.88;92732.72;5051061;28;20092;-84
2022/04/24 07:44:09;;;;;;;6.45;2.17;;;;;;;20.34;59.38;92714.50;5050594;28;20045;-83
2022/04/24 07:46:36;;;;;;;9.38;2.15;;;;;;;20.81;56.58;92722.44;5050990;28;20400;-83
2022/04/24 07:49:03;;;;;;;6.90;2.05;;;;;;;20.76;53.89;92716.50;5050789;28;20044;-83
2022/04/24 07:51:30;;;;;;;9.32;2.30;;;;;;;20.58;53.11;92703.19;5050634;28;20045;-83
2022/04/24 07:53:58;;;;;;;5.85;1.98;;;;;;;20.99;52.03;92730.53;5050814;28;20410;-82
2022/04/24 07:56:25;;;;;;;9.15;2.13;;;;;;;21.49;54.16;92731.75;5050631;28;20362;-82
2022/04/24 07:58:52;;;;;;;4.30;1.65;;;;;;;21.40;49.53;92695.09;5050445;28;20515;-83
2022/04/24 08:01:18;;;;;;;6.03;1.88;;;;;;;20.04;51.55;92693.00;5050466;28;20061;-83
2022/04/24 08:03:45;;;;;;;7.60;1.48;;;;;;;20.41;49.55;92730.56;5050081;28;20056;-83
2022/04/24 08:06:12;;;;;;;8.90;1.85;;;;;;;21.02;52.91;92714.28;5050752;28;20135;-82
2022/04/24 08:08:39;;;;;;;5.15;2.00;;;;;;;21.50;50.46;92707.19;5050319;28;20483;-82
2022/04/24 08:11:07;;;;;;;7.35;1.73;;;;;;;21.90;49.98;92706.72;5050918;28;20045;-82
2022/04/24 08:13:34;;;;;;;3.17;1.45;;;;;;;21.92;46.19;92691.50;5051090;28;20467;-83
2022/04/24 08:16:02;;;;;;;9.75;1.58;;;;;;;22.27;45.38;92686.56;5050227;28;20047;-83
2022/04/24 08:18:31;;;;;;;5.95;1.33;;;;;;;22.69;47.31;92683.06;5050275;28;20045;-82
2022/04/24 08:20:58;;;;;;;3.47;0.93;;;;;;;22.93;46.43;92687.19;5049987;28;20518;-82
2022/04/24 08:23:28;;;;;;;6.43;1.38;;;;;;;22.89;43.21;92684.41;5050153;28;20049;-83
2022/04/24 08:25:55;;;;;;;4.80;0.90;;;;;;;22.95;42.82;92672.72;5049973;28;20045;-83
2022/04/24 08:28:25;;;;;;;5.32;1.25;;;;;;;23.13;41.65;92693.75;5049931;28;20484;-83
2022/04/24 08:30:53;;;;;;;3.95;1.10;;;;;;;23.23;42.99;92693.50;5049844;28;20060;-83
2022/04/24 08:33:20;;;;;;;3.50;1.52;;;;;;;23.26;42.10;92692.13;5050088;28;20040;-83
2022/04/24 08:35:48;;;;;;;5.43;1.02;;;;;;;23.39;42.13;92690.53;5048803;28;20490;-83
2022/04/24 08:38:15;;;;;;;5.28;1.10;;;;;;;23.30;41.27;92692.28;5049818;28;20059;-83
2022/04/24 08:40:42;;;;;;;5.47;1.83;;;;;;;23.21;40.33;92668.69;5050085;28;20416;-83
2022/04/24 08:43:09;;;;;;;4.28;1.48;;;;;;;23.41;40.56;92684.97;5049759;28;20055;-82
2022/04/24 08:45:41;;;;;;;5.57;1.80;;;;;;;23.47;40.83;92676.66;5049914;28;20115;-82
2022/04/24 08:48:09;;;;;;;3.70;1.10;;;;;;;23.48;39.38;92687.94;5050051;28;20055;-84
2022/04/24 08:50:37;;;;;;;3.70;0.90;;;;;;;23.59;40.13;92680.53;5049910;28;20048;-83
2022/04/24 08:53:06;;;;;;;4.85;1.45;;;;;;;23.67;40.18;92676.41;5049694;28;20055;-84
2022/04/24 08:55:33;;;;;;;7.35;1.23;;;;;;;23.88;39.65;92671.34;5049397;28;20131;-84
2022/04/24 08:58:01;;;;;;;7.22;1.20;;;;;;;23.96;38.60;92665.34;5049746;28;20090;-83
2022/04/24 09:00:29;;;;;;;5.45;1.25;;;;;;;23.79;37.35;92667.97;5049357;28;20052;-83
2022/04/24 09:02:58;;;;;;;5.53;1.60;;;;;;;23.73;37.79;92651.59;5049120;28;20045;-84
2022/04/24 09:05:25;;;;;;;5.38;1.42;;;;;;;23.86;37.74;92668.28;5050110;28;20052;-83
2022/04/24 09:07:53;;;;;;;4.95;0.80;;;;;;;23.87;37.86;92657.47;5049734;28;20045;-85
2022/04/24 09:10:20;;;;;;;5.35;1.00;;;;;;;23.84;38.64;92647.59;5049986;28;20057;-84
2022/04/24 09:12:53;;;;;;;3.40;1.30;;;;;;;24.05;38.31;92664.59;5049777;28;20063;-84
2022/04/24 09:15:20;;;;;;;10.77;1.30;;;;;;;24.06;38.22;92650.41;5049747;28;20051;-85
2022/04/24 09:17:47;;;;;;;4.97;1.00;;;;;;;24.22;38.12;92653.38;5048925;28;20045;-84
2022/04/24 09:20:19;;;;;;;5.57;1.33;;;;;;;24.29;38.78;92654.44;5049350;28;20041;-84
2022/04/24 09:22:47;;;;;;;4.53;1.40;;;;;;;24.18;37.03;92631.44;5048625;28;20442;-84
2022/04/24 09:25:14;;;;;;;8.13;2.53;;;;;;;24.43;36.55;92650.88;5049190;28;20056;-85
2022/04/24 09:27:41;;;;;;;5.20;1.25;;;;;;;24.51;36.02;92652.72;5049482;28;20049;-85
2022/04/24 09:30:12;;;;;;;6.07;1.95;;;;;;;24.57;35.97;92649.94;5048884;28;20041;-84
2022/04/24 09:32:47;;;;;;;4.60;1.42;;;;;;;24.49;36.21;92630.50;5049005;28;20478;-84
2022/04/24 09:35:30;;;;;;;6.30;1.65;;;;;;;24.78;35.88;92647.44;5048635;28;20489;-84
2022/04/24 09:38:08;;;;;;;7.32;1.75;;;;;;;24.77;35.01;92625.63;5049279;28;20055;-85
2022/04/24 09:40:39;;;;;;;6.03;1.85;;;;;;;24.96;36.08;92632.44;5049965;28;20120;-85
2022/04/24 09:43:09;;;;;;;3.47;1.23;;;;;;;25.15;36.07;92639.16;5049657;28;20044;-85
2022/04/24 09:45:37;;;;;;;6.10;1.60;;;;;;;25.09;34.67;92631.44;5050121;28;20049;-85
2022/04/24 09:48:12;;;;;;;8.07;1.00;;;;;;;25.09;35.69;92630.69;5053981;28;20056;-85
2022/04/24 09:50:41;;;;;;;4.53;1.08;;;;;;;24.94;34.06;92603.06;5053770;28;20439;-86
2022/04/24 09:53:08;;;;;;;4.03;0.95;;;;;;;25.17;33.97;92621.19;5053723;28;20560;-86
2022/04/24 09:55:38;;;;;;;6.07;2.15;;;;;;;24.62;34.46;92534.25;5053679;28;20119;-87
2022/04/24 09:58:06;;;;;;;3.63;1.25;;;;;;;24.95;33.49;92567.84;5052759;28;20071;-84
2022/04/24 10:00:34;;;;;;;6.03;1.88;;;;;;;24.75;33.52;92532.50;5052731;28;20567;-86
2022/04/24 10:03:02;;;;;;;6.00;1.27;;;;;;;25.31;34.21;92599.97;5053018;28;20052;-87
2022/04/24 10:05:30;;;;;;;8.77;3.28;;;;;;;25.05;34.22;92569.34;5052654;28;20052;-86
2022/04/24 10:08:01;;;;;;;8.27;1.98;;;;;;;25.33;34.15;92609.06;5052593;28;20044;-86
2022/04/24 10:10:28;;;;;;;10.07;1.90;;;;;;;25.13;33.33;92586.91;5052758;28;20457;-87
2022/04/24 10:12:55;;;;;;;10.32;1.98;;;;;;;25.26;33.33;92595.66;5052797;28;20396;-86
2022/04/24 10:15:24;;;;;;;4.30;1.30;;;;;;;25.33;34.62;92598.56;5052421;28;20503;-87
2022/04/24 10:18:16;;;;;;;5.68;1.33;;;;;;;25.41;35.04;92570.69;5051546;28;20052;-86
2022/04/24 10:21:06;;;;;;;5.03;1.38;;;;;;;25.47;33.80;92595.69;5030782;28;20046;-86
2022/04/24 10:23:37;;;;;;;7.50;1.45;;;;;;;25.33;34.28;92585.41;5031752;28;21197;-86
2022/04/24 10:26:16;;;;;;;9.18;1.80;;;;;;;25.55;33.22;92578.34;5052016;28;20129;-86
2022/04/24 10:28:44;;;;;;;5.90;1.63;;;;;;;25.78;34.08;92593.06;5052048;28;20052;-86
2022/04/24 10:31:12;;;;;;;9.77;1.42;;;;;;;25.79;33.72;92592.75;5052181;28;20052;-87
2022/04/24 10:33:40;;;;;;;6.18;1.63;;;;;;;25.71;34.19;92583.84;5052165;28;20049;-87
2022/04/24 10:36:13;;;;;;;5.63;1.10;;;;;;;25.48;33.96;92546.53;5051893;28;20088;-88
2022/04/24 10:38:49;;;;;;;8.30;1.30;;;;;;;25.69;33.94;92564.97;5051849;28;20504;-88
2022/04/24 10:41:16;;;;;;;;;;;;;;;25.95;34.20;92586.91;5052671;28;20052;-86
2022/04/24 10:43:48;;;;;;;12.90;2.33;;;;;;;26.00;33.95;92566.44;5051784;28;19920;-87
2022/04/24 10:46:19;;;;;;;7.88;1.58;;;;;;;26.20;34.24;92573.88;5051921;28;20049;-87
2022/04/24 10:48:48;;;;;;;4.97;1.20;;;;;;;25.91;31.01;92562.34;5052001;28;20150;-86
2022/04/24 10:51:27;;;;;;;6.97;1.15;;;;;;;25.75;32.44;92568.94;5051787;28;20040;-87
2022/04/24 10:53:58;;;;;;;3.80;0.90;;;;;;;25.91;32.53;92557.84;5051618;28;20037;-88
2022/04/24 10:56:26;;;;;;;6.80;1.30;;;;;;;25.76;32.52;92522.38;5051970;28;20499;-87
2022/04/24 10:58:52;;;;;;;3.30;1.00;;;;;;;26.12;32.62;92563.09;5050760;28;20041;-85
2022/04/24 11:01:19;;;;;;;6.30;2.00;;;;;;;26.11;31.93;92563.41;5052222;28;20403;-86
2022/04/24 11:03:47;;;;;;;4.15;0.98;;;;;;;25.78;31.95;92524.69;5051617;28;20398;-87
2022/04/24 11:06:25;;;;;;;4.15;1.23;;;;;;;25.82;31.75;92509.81;5051376;28;20055;-87
2022/04/24 11:09:33;;;;;;;4.65;1.35;;;;;;;25.58;32.32;92451.50;5051955;28;20048;-85
2022/04/24 11:12:02;;;;;;;4.70;1.05;;;;;;;26.28;31.59;92550.13;5051678;28;20048;-84
2022/04/24 11:14:30;;;;;;;3.50;1.00;;;;;;;26.46;32.07;92549.94;5051108;28;20508;-84
2022/04/24 11:16:58;;;;;;;5.35;1.15;;;;;;;26.33;32.12;92529.94;5051281;28;20136;-84
2022/04/24 11:19:27;;;;;;;5.57;1.02;;;;;;;26.31;33.09;92518.97;5051609;28;20045;-84
2022/04/24 11:21:58;;;;;;;6.30;1.42;;;;;;;26.50;32.31;92537.66;5051065;28;20048;-85
2022/04/24 11:24:28;;;;;;;4.90;1.10;;;;;;;26.40;32.41;92509.91;5050990;28;20056;-84
2022/04/24 11:26:55;;;;;;;10.07;1.35;;;;;;;26.68;32.06;92521.66;5050282;28;20037;-86
2022/04/24 11:29:54;;;;;;;6.38;1.40;;;;;;;26.58;30.96;92495.75;5050031;28;20056;-86
2022/04/24 11:32:22;;;;;;;7.95;1.35;;;;;;;26.69;31.35;92536.38;5049887;28;20049;-83
2022/04/24 11:34:57;;;;;;;4.10;0.80;;;;;;;26.60;30.95;92523.31;5049687;28;20502;-86
2022/04/24 11:37:25;;;;;;;5.43;1.15;;;;;;;26.54;30.92;92508.81;5050616;28;20057;-86